Terminal Aerodrome Forecast
Issued by NWS Mt. Holly, NJ

Home | Current Version | Previous Version | Text Only | Print | Product List | Glossary On
Versions: 1 2 3 4 5 6 7 8 9 10 11 12 13 14
000
FTUS41 KPHI 211700 RRA
TAFACY
TAF
KACY 211751Z 2118/2218 24005KT P6SM SCT050 BKN100
     FM220300 VRB03KT 6SM -SHRA OVC040
     FM220700 03007KT 6SM -RA SCT025 OVC040
     FM221100 03010KT 4SM -RA BR BKN008
     FM221500 03012G20KT 4SM RA BR BKN012=

USA.gov is the U.S. government's official web portal to all federal, state and local government web resources and services.